Time;durP1;ratioP1;P1;durP2;ratioP2;P2;SDS_P1;SDS_P2;PMS_P1;PMS_P2;Temp;Humidity;BMP_temperature;BMP_pressure;BME280_temperature;BME280_humidity;BME280_pressure;Samples;Min_cycle;Max_cycle;Signal;HPM_P1;HPM_P2
2023/04/10 00:01:48;;;;;;;12.20;7.22;;;;;;;;;;5001651;28;20061;-69
2023/04/10 00:04:14;;;;;;;11.77;6.40;;;;;;;;;;5006253;28;20025;-69
2023/04/10 00:06:40;;;;;;;14.02;6.70;;;;;;;;;;5006611;28;20642;-69
2023/04/10 00:09:06;;;;;;;12.20;6.47;;;;;;;;;;5005049;28;20030;-69
2023/04/10 00:11:31;;;;;;;15.43;7.05;;;;;;;;;;5005168;28;20046;-69
2023/04/10 00:13:56;;;;;;;15.30;6.47;;;;;;;;;;5010936;28;20026;-69
2023/04/10 00:16:21;;;;;;;12.20;6.57;;;;;;;;;;5013309;28;20045;-69
2023/04/10 00:18:47;;;;;;;13.05;7.18;;;;;;;;;;5017584;28;20449;-68
2023/04/10 00:21:12;;;;;;;13.60;7.35;;;;;;;;;;5008567;28;20092;-69
2023/04/10 00:23:37;;;;;;;13.55;6.60;;;;;;;;;;5009443;28;20386;-69
2023/04/10 00:26:03;;;;;;;11.23;6.50;;;;;;;;;;5010618;28;20113;-69
2023/04/10 00:28:28;;;;;;;11.68;6.60;;;;;;;;;;5010293;28;20037;-69
2023/04/10 00:30:54;;;;;;;14.13;6.55;;;;;;;;;;4998665;28;20457;-69
2023/04/10 00:33:19;;;;;;;12.48;6.40;;;;;;;;;;4999974;28;20042;-69
2023/04/10 00:35:45;;;;;;;13.05;6.57;;;;;;;;;;5017362;28;20045;-69
2023/04/10 00:38:10;;;;;;;13.80;6.68;;;;;;;;;;5006599;28;20073;-69
2023/04/10 00:40:36;;;;;;;11.52;6.32;;;;;;;;;;5006053;28;20033;-69
2023/04/10 00:43:01;;;;;;;11.40;6.60;;;;;;;;;;4998273;28;20018;-69
2023/04/10 00:45:26;;;;;;;13.35;6.15;;;;;;;;;;5003785;28;20041;-69
2023/04/10 00:47:53;;;;;;;11.43;5.97;;;;;;;;;;5002421;28;20088;-69
2023/04/10 00:50:19;;;;;;;12.60;5.95;;;;;;;;;;5007069;28;20081;-69
2023/04/10 00:52:45;;;;;;;13.20;6.13;;;;;;;;;;4995989;28;20029;-69
2023/04/10 00:55:10;;;;;;;10.45;5.40;;;;;;;;;;5004202;28;20029;-69
2023/04/10 00:57:36;;;;;;;12.70;6.30;;;;;;;;;;5004771;28;20026;-69
2023/04/10 01:00:03;;;;;;;11.77;6.90;;;;;;;;;;4995159;28;20035;-69
2023/04/10 01:02:29;;;;;;;13.82;6.85;;;;;;;;;;5001010;28;20509;-69
2023/04/10 01:04:54;;;;;;;15.35;7.70;;;;;;;;;;5010013;28;20037;-68
2023/04/10 01:07:37;;;;;;;17.25;8.15;;;;;;;;;;4996185;28;20025;-69
2023/04/10 01:10:46;;;;;;;16.52;7.60;;;;;;;;;;5009156;28;20080;-69
2023/04/10 01:13:27;;;;;;;13.57;7.10;;;;;;;;;;5005964;28;20516;-69
2023/04/10 01:16:01;;;;;;;13.50;7.00;;;;;;;;;;5008368;28;20124;-69
2023/04/10 01:18:42;;;;;;;11.68;6.53;;;;;;;;;;5009607;28;20050;-69
2023/04/10 01:21:10;;;;;;;11.23;5.65;;;;;;;;;;5010310;28;20060;-69
2023/04/10 01:24:13;;;;;;;9.70;5.30;;;;;;;;;;4998936;28;20057;-68
2023/04/10 01:27:01;;;;;;;11.77;5.72;;;;;;;;;;4997758;28;20398;-69
2023/04/10 01:29:29;;;;;;;11.30;5.90;;;;;;;;;;5007459;28;20049;-69
2023/04/10 01:32:01;;;;;;;11.05;5.55;;;;;;;;;;5006159;28;20046;-69
2023/04/10 01:34:48;;;;;;;10.00;5.07;;;;;;;;;;5015943;28;20034;-69
2023/04/10 01:37:22;;;;;;;9.57;5.55;;;;;;;;;;4997579;28;20037;-69
2023/04/10 01:39:52;;;;;;;10.98;5.80;;;;;;;;;;5011013;28;20024;-69
2023/04/10 01:42:20;;;;;;;11.63;6.07;;;;;;;;;;5015155;28;20080;-69
2023/04/10 01:44:47;;;;;;;10.05;5.63;;;;;;;;;;5007181;28;20045;-69
2023/04/10 01:47:17;;;;;;;11.32;5.32;;;;;;;;;;5008812;28;20682;-69
2023/04/10 01:49:45;;;;;;;14.10;5.63;;;;;;;;;;5012083;28;20408;-69
2023/04/10 01:52:12;;;;;;;13.70;6.25;;;;;;;;;;5009473;28;20447;-69
2023/04/10 01:54:38;;;;;;;13.95;6.78;;;;;;;;;;5009456;28;20076;-69
2023/04/10 01:57:04;;;;;;;17.65;7.43;;;;;;;;;;5008255;28;20041;-69
2023/04/10 01:59:30;;;;;;;17.80;7.32;;;;;;;;;;5008657;28;20034;-69
2023/04/10 02:02:00;;;;;;;16.15;7.28;;;;;;;;;;5005871;28;20042;-69
2023/04/10 02:04:26;;;;;;;15.80;6.47;;;;;;;;;;5001402;28;20505;-69
2023/04/10 02:07:12;;;;;;;13.02;6.50;;;;;;;;;;5007936;28;20025;-69
2023/04/10 02:09:49;;;;;;;15.20;6.85;;;;;;;;;;5008120;28;20049;-69
2023/04/10 02:12:25;;;;;;;15.23;6.20;;;;;;;;;;5006128;28;20061;-69
2023/04/10 02:14:52;;;;;;;13.93;6.72;;;;;;;;;;5006507;28;20034;-69
2023/04/10 02:17:23;;;;;;;12.55;6.97;;;;;;;;;;5011784;28;20525;-69
2023/04/10 02:19:50;;;;;;;16.98;6.85;;;;;;;;;;5006746;28;20045;-69
2023/04/10 02:22:15;;;;;;;17.08;7.28;;;;;;;;;;5008273;28;20410;-69
2023/04/10 02:24:41;;;;;;;22.10;7.60;;;;;;;;;;5002331;28;20036;-68
2023/04/10 02:27:06;;;;;;;18.55;6.20;;;;;;;;;;5008416;28;20128;-69
2023/04/10 02:29:32;;;;;;;14.60;7.05;;;;;;;;;;5002416;28;20417;-68
2023/04/10 02:31:57;;;;;;;22.10;6.90;;;;;;;;;;5003382;28;20038;-69
2023/04/10 02:34:22;;;;;;;17.25;6.82;;;;;;;;;;5006651;28;20532;-68
2023/04/10 02:36:48;;;;;;;18.25;8.23;;;;;;;;;;5007782;28;20045;-69
2023/04/10 02:39:13;;;;;;;16.55;6.95;;;;;;;;;;5003481;28;20030;-68
2023/04/10 02:41:38;;;;;;;16.65;7.25;;;;;;;;;;5008689;28;20034;-69
2023/04/10 02:44:05;;;;;;;14.77;6.88;;;;;;;;;;5007761;28;20034;-69
2023/04/10 02:46:30;;;;;;;13.13;6.35;;;;;;;;;;5007516;28;20030;-69
2023/04/10 02:48:56;;;;;;;17.77;7.72;;;;;;;;;;5007681;28;20036;-68
2023/04/10 02:51:21;;;;;;;13.85;7.03;;;;;;;;;;5008291;28;20037;-69
2023/04/10 02:53:47;;;;;;;16.35;6.93;;;;;;;;;;5007655;28;20030;-69
2023/04/10 02:56:12;;;;;;;17.38;7.85;;;;;;;;;;5007113;28;20038;-69
2023/04/10 02:58:38;;;;;;;17.55;7.80;;;;;;;;;;4994663;28;20675;-69
2023/04/10 03:01:07;;;;;;;17.77;8.10;;;;;;;;;;5008463;28;20030;-69
2023/04/10 03:03:32;;;;;;;22.65;9.73;;;;;;;;;;5003992;28;20029;-69
2023/04/10 03:05:57;;;;;;;22.75;8.93;;;;;;;;;;5011944;28;20038;-69
2023/04/10 03:08:23;;;;;;;22.92;8.90;;;;;;;;;;5001629;28;20117;-69
2023/04/10 03:10:48;;;;;;;24.70;8.75;;;;;;;;;;5004152;28;20049;-68
2023/04/10 03:13:14;;;;;;;22.25;8.52;;;;;;;;;;5006563;28;20030;-68
2023/04/10 03:15:40;;;;;;;18.52;8.50;;;;;;;;;;5007925;28;20026;-68
2023/04/10 03:18:05;;;;;;;21.35;8.77;;;;;;;;;;5007191;28;20029;-68
2023/04/10 03:20:32;;;;;;;18.00;7.50;;;;;;;;;;5002546;28;20088;-68
2023/04/10 03:22:58;;;;;;;15.45;7.35;;;;;;;;;;5004157;28;20141;-68
2023/04/10 03:25:24;;;;;;;21.17;8.93;;;;;;;;;;5007175;28;20034;-69
2023/04/10 03:27:50;;;;;;;22.65;7.57;;;;;;;;;;5006085;28;20033;-68
2023/04/10 03:30:16;;;;;;;21.20;8.73;;;;;;;;;;5007023;28;20591;-69
2023/04/10 03:32:41;;;;;;;22.40;9.27;;;;;;;;;;5005009;28;20061;-68
2023/04/10 03:35:08;;;;;;;25.27;9.48;;;;;;;;;;5011241;28;20030;-68
2023/04/10 03:37:33;;;;;;;22.70;8.68;;;;;;;;;;5006307;28;20069;-68
2023/04/10 03:39:58;;;;;;;23.45;8.63;;;;;;;;;;5004686;28;20053;-68
2023/04/10 03:42:24;;;;;;;26.73;8.50;;;;;;;;;;5002148;28;20034;-68
2023/04/10 03:44:49;;;;;;;16.13;7.60;;;;;;;;;;5005098;28;20176;-68
2023/04/10 03:47:15;;;;;;;16.98;6.82;;;;;;;;;;5006360;28;20042;-69
2023/04/10 03:49:40;;;;;;;16.45;7.18;;;;;;;;;;5005590;28;20065;-69
2023/04/10 03:52:05;;;;;;;14.48;6.72;;;;;;;;;;5004980;28;20029;-69
2023/04/10 03:54:31;;;;;;;15.70;6.15;;;;;;;;;;5007098;28;20744;-69
2023/04/10 03:56:56;;;;;;;13.70;6.10;;;;;;;;;;5006237;28;20103;-69
2023/04/10 03:59:21;;;;;;;15.50;6.40;;;;;;;;;;5003329;28;20026;-69
2023/04/10 04:01:47;;;;;;;13.20;5.90;;;;;;;;;;4997764;28;20525;-69
2023/04/10 04:04:12;;;;;;;12.15;5.97;;;;;;;;;;5010018;28;20088;-68
2023/04/10 04:06:37;;;;;;;10.93;5.57;;;;;;;;;;5005070;28;20022;-69
2023/04/10 04:09:03;;;;;;;11.15;5.45;;;;;;;;;;5006359;28;20034;-69
2023/04/10 04:11:28;;;;;;;13.25;5.75;;;;;;;;;;5005467;28;20050;-69
2023/04/10 04:13:53;;;;;;;11.45;5.57;;;;;;;;;;5005306;28;20085;-69
2023/04/10 04:16:19;;;;;;;12.30;5.22;;;;;;;;;;5009974;28;20064;-69
2023/04/10 04:18:44;;;;;;;13.20;5.55;;;;;;;;;;5008730;28;20045;-69
2023/04/10 04:21:10;;;;;;;11.82;5.13;;;;;;;;;;5006147;28;20053;-69
2023/04/10 04:23:35;;;;;;;12.18;5.20;;;;;;;;;;5006251;28;20460;-69
2023/04/10 04:26:00;;;;;;;12.52;6.07;;;;;;;;;;5009372;28;20037;-69
2023/04/10 04:28:26;;;;;;;12.80;5.43;;;;;;;;;;5010431;28;20122;-69
2023/04/10 04:30:51;;;;;;;14.85;5.65;;;;;;;;;;5000679;28;20089;-69
2023/04/10 04:33:17;;;;;;;11.35;5.70;;;;;;;;;;5005013;28;20858;-69
2023/04/10 04:35:42;;;;;;;14.93;5.78;;;;;;;;;;5004973;28;20038;-69
2023/04/10 04:38:07;;;;;;;12.02;5.80;;;;;;;;;;5006297;28;20062;-69
2023/04/10 04:40:33;;;;;;;12.20;6.45;;;;;;;;;;5005159;28;20057;-68
2023/04/10 04:42:58;;;;;;;13.55;5.95;;;;;;;;;;5005389;28;20076;-69
2023/04/10 04:45:23;;;;;;;10.50;5.43;;;;;;;;;;5005171;28;20038;-69
2023/04/10 04:47:49;;;;;;;13.30;5.32;;;;;;;;;;5004645;28;20096;-69
2023/04/10 04:50:14;;;;;;;12.35;6.10;;;;;;;;;;5002804;28;20049;-69
2023/04/10 04:52:40;;;;;;;15.07;6.60;;;;;;;;;;5005132;28;20034;-69
2023/04/10 04:55:06;;;;;;;13.93;6.15;;;;;;;;;;5006017;28;20030;-69
2023/04/10 04:57:31;;;;;;;14.93;6.53;;;;;;;;;;5006286;28;20041;-69
2023/04/10 04:59:56;;;;;;;15.25;6.68;;;;;;;;;;5009462;28;20041;-69
2023/04/10 05:02:22;;;;;;;15.18;6.40;;;;;;;;;;5008377;28;20038;-69
2023/04/10 05:04:47;;;;;;;15.57;6.80;;;;;;;;;;5002175;28;20042;-69
2023/04/10 05:07:13;;;;;;;13.98;6.20;;;;;;;;;;5009312;28;20029;-69
2023/04/10 05:09:38;;;;;;;15.35;6.32;;;;;;;;;;5019489;28;20717;-69
2023/04/10 05:12:04;;;;;;;16.35;6.82;;;;;;;;;;5005145;28;20050;-68
2023/04/10 05:14:30;;;;;;;19.77;7.82;;;;;;;;;;5004267;28;20548;-69
2023/04/10 05:16:55;;;;;;;21.80;9.45;;;;;;;;;;5009066;28;20068;-69
2023/04/10 05:19:21;;;;;;;29.33;10.10;;;;;;;;;;5009055;28;20401;-68
2023/04/10 05:21:46;;;;;;;28.77;9.95;;;;;;;;;;5006193;28;20029;-68
2023/04/10 05:24:11;;;;;;;27.40;9.57;;;;;;;;;;5008510;28;20037;-69
2023/04/10 05:26:37;;;;;;;20.95;8.45;;;;;;;;;;5008558;28;20509;-69
2023/04/10 05:29:03;;;;;;;27.70;9.32;;;;;;;;;;5007480;28;20058;-68
2023/04/10 05:31:28;;;;;;;20.23;8.45;;;;;;;;;;5010956;28;20116;-68
2023/04/10 05:33:53;;;;;;;21.58;8.23;;;;;;;;;;5009469;28;20121;-68
2023/04/10 05:36:19;;;;;;;19.65;7.85;;;;;;;;;;5008749;28;20088;-68
2023/04/10 05:38:44;;;;;;;21.65;8.48;;;;;;;;;;5004924;28;20049;-68
2023/04/10 05:41:10;;;;;;;23.02;8.55;;;;;;;;;;5008641;28;20044;-68
2023/04/10 05:43:35;;;;;;;19.98;8.07;;;;;;;;;;5008889;28;20417;-68
2023/04/10 05:46:00;;;;;;;20.35;8.13;;;;;;;;;;5007750;28;20116;-68
2023/04/10 05:48:27;;;;;;;20.85;7.47;;;;;;;;;;5009850;28;20113;-68
2023/04/10 05:50:52;;;;;;;17.38;6.90;;;;;;;;;;5009486;28;20603;-68
2023/04/10 05:53:19;;;;;;;15.82;7.25;;;;;;;;;;5009183;28;20038;-68
2023/04/10 05:55:44;;;;;;;19.63;7.97;;;;;;;;;;5009181;28;20042;-68
2023/04/10 05:58:10;;;;;;;16.75;7.55;;;;;;;;;;4996159;28;20019;-68
2023/04/10 06:00:36;;;;;;;16.02;6.20;;;;;;;;;;5002880;28;20409;-68
2023/04/10 06:03:02;;;;;;;15.40;6.35;;;;;;;;;;4996354;28;20097;-68
2023/04/10 06:05:27;;;;;;;17.30;6.57;;;;;;;;;;5003395;28;20036;-68
2023/04/10 06:07:53;;;;;;;22.55;8.23;;;;;;;;;;5007583;28;20038;-68
2023/04/10 06:10:18;;;;;;;23.17;7.60;;;;;;;;;;5007423;28;20058;-68
2023/04/10 06:12:44;;;;;;;24.60;8.32;;;;;;;;;;5008060;28;20679;-69
2023/04/10 06:15:09;;;;;;;18.58;7.50;;;;;;;;;;5008609;28;20113;-68
2023/04/10 06:17:43;;;;;;;14.88;6.25;;;;;;;;;;5005338;28;20045;-68
2023/04/10 06:20:08;;;;;;;;;;;;;;;;;;5007881;28;20049;-69
2023/04/10 06:22:34;;;;;;;11.98;5.43;;;;;;;;;;5008236;28;20662;-68
2023/04/10 06:25:00;;;;;;;16.23;7.13;;;;;;;;;;5008154;28;20113;-68
2023/04/10 06:27:26;;;;;;;12.45;5.63;;;;;;;;;;5005781;28;20532;-68
2023/04/10 06:29:51;;;;;;;12.75;6.53;;;;;;;;;;5008342;28;20065;-69
2023/04/10 06:32:16;;;;;;;14.75;6.60;;;;;;;;;;5006291;28;20073;-69
2023/04/10 06:34:42;;;;;;;12.35;5.50;;;;;;;;;;5006133;28;20117;-69
2023/04/10 06:37:07;;;;;;;11.80;5.63;;;;;;;;;;5007792;28;20052;-69
2023/04/10 06:39:32;;;;;;;11.95;5.18;;;;;;;;;;5008014;28;20045;-69
2023/04/10 06:41:58;;;;;;;13.98;5.45;;;;;;;;;;5007638;28;20040;-69
2023/04/10 06:44:23;;;;;;;11.05;4.18;;;;;;;;;;5000863;28;20054;-69
2023/04/10 06:46:48;;;;;;;12.40;5.50;;;;;;;;;;5008496;28;20034;-68
2023/04/10 06:49:13;;;;;;;9.60;6.05;;;;;;;;;;5007222;28;20026;-69
2023/04/10 06:51:39;;;;;;;10.48;5.85;;;;;;;;;;4994044;28;20053;-69
2023/04/10 06:54:04;;;;;;;15.65;5.40;;;;;;;;;;5007566;28;20044;-69
2023/04/10 06:56:30;;;;;;;14.63;5.10;;;;;;;;;;4999367;28;20452;-69
2023/04/10 06:58:56;;;;;;;7.22;3.78;;;;;;;;;;5012887;28;20962;-69
2023/04/10 07:01:21;;;;;;;7.63;4.65;;;;;;;;;;5005164;28;20028;-69
2023/04/10 07:03:47;;;;;;;8.13;4.35;;;;;;;;;;5007599;28;20042;-69
2023/04/10 07:06:12;;;;;;;7.15;3.45;;;;;;;;;;5006279;28;20052;-69
2023/04/10 07:08:37;;;;;;;9.50;4.90;;;;;;;;;;5007041;28;20049;-69
2023/04/10 07:11:03;;;;;;;15.20;4.60;;;;;;;;;;5006133;28;20231;-69
2023/04/10 07:13:28;;;;;;;9.88;5.03;;;;;;;;;;5001813;28;20041;-69
2023/04/10 07:15:53;;;;;;;9.35;4.53;;;;;;;;;;5009602;28;20040;-69
2023/04/10 07:18:19;;;;;;;7.40;4.20;;;;;;;;;;5008053;28;20045;-69
2023/04/10 07:20:44;;;;;;;9.75;5.00;;;;;;;;;;5006820;28;20034;-69
2023/04/10 07:23:10;;;;;;;10.38;5.03;;;;;;;;;;5012711;28;20044;-69
2023/04/10 07:25:35;;;;;;;18.83;5.28;;;;;;;;;;5004081;28;20042;-69
2023/04/10 07:28:00;;;;;;;10.52;4.93;;;;;;;;;;4998955;28;20026;-69
2023/04/10 07:30:26;;;;;;;15.15;6.32;;;;;;;;;;5005186;28;20476;-69
2023/04/10 07:32:51;;;;;;;15.10;6.72;;;;;;;;;;5004937;28;20042;-69
2023/04/10 07:35:16;;;;;;;15.05;7.05;;;;;;;;;;5004554;28;20094;-69
2023/04/10 07:37:43;;;;;;;18.55;7.93;;;;;;;;;;5000289;28;20049;-69
2023/04/10 07:40:08;;;;;;;25.25;8.95;;;;;;;;;;5002240;28;20619;-69
2023/04/10 07:42:34;;;;;;;18.02;7.47;;;;;;;;;;5005168;28;20026;-70
2023/04/10 07:44:59;;;;;;;15.43;7.35;;;;;;;;;;5006651;28;20037;-69
2023/04/10 07:47:25;;;;;;;16.92;6.97;;;;;;;;;;5005798;28;20088;-69
2023/04/10 07:49:50;;;;;;;17.00;7.45;;;;;;;;;;5006022;28;20034;-69
2023/04/10 07:52:15;;;;;;;13.15;5.47;;;;;;;;;;4992305;28;20029;-69
2023/04/10 07:54:41;;;;;;;11.75;5.82;;;;;;;;;;5005090;28;20026;-68
2023/04/10 07:57:06;;;;;;;13.23;5.10;;;;;;;;;;5000214;28;20513;-69
2023/04/10 07:59:31;;;;;;;10.63;5.22;;;;;;;;;;4994984;28;20037;-69
2023/04/10 08:01:57;;;;;;;10.23;5.63;;;;;;;;;;5006333;28;20583;-69
2023/04/10 08:04:22;;;;;;;11.70;5.68;;;;;;;;;;5002684;28;20115;-69
2023/04/10 08:06:48;;;;;;;8.43;4.80;;;;;;;;;;5006441;28;20034;-69
2023/04/10 08:09:14;;;;;;;11.27;5.05;;;;;;;;;;5005679;28;20033;-69
2023/04/10 08:11:39;;;;;;;8.00;4.68;;;;;;;;;;5003651;28;20115;-69
2023/04/10 08:14:05;;;;;;;9.95;5.30;;;;;;;;;;5007580;28;20037;-69
2023/04/10 08:16:32;;;;;;;9.85;4.38;;;;;;;;;;5005799;28;20117;-69
2023/04/10 08:18:58;;;;;;;12.85;5.80;;;;;;;;;;5006207;28;20030;-69
2023/04/10 08:21:26;;;;;;;8.68;4.63;;;;;;;;;;5005964;28;20440;-69
2023/04/10 08:23:56;;;;;;;10.15;5.07;;;;;;;;;;5004208;28;20033;-69
2023/04/10 08:26:22;;;;;;;7.97;3.78;;;;;;;;;;5008424;28;20040;-69
2023/04/10 08:28:49;;;;;;;13.10;3.70;;;;;;;;;;5010237;28;20030;-69
2023/04/10 08:31:19;;;;;;;9.43;4.80;;;;;;;;;;5002970;28;20448;-69
2023/04/10 08:33:44;;;;;;;7.97;4.43;;;;;;;;;;5007822;28;20040;-69
2023/04/10 08:36:11;;;;;;;9.00;4.82;;;;;;;;;;5013402;28;20124;-69
2023/04/10 08:38:37;;;;;;;9.48;4.70;;;;;;;;;;5015739;28;20096;-69
2023/04/10 08:41:03;;;;;;;9.00;4.88;;;;;;;;;;5015781;28;20034;-69
2023/04/10 08:43:29;;;;;;;10.30;5.63;;;;;;;;;;5020537;28;20030;-69
2023/04/10 08:45:55;;;;;;;9.63;4.50;;;;;;;;;;5018810;28;20030;-69
2023/04/10 08:48:24;;;;;;;7.25;3.83;;;;;;;;;;5015770;28;20521;-69
2023/04/10 08:50:50;;;;;;;8.40;4.25;;;;;;;;;;5008105;28;20034;-70
2023/04/10 08:53:19;;;;;;;7.75;4.65;;;;;;;;;;5007310;28;20057;-70
2023/04/10 08:55:44;;;;;;;6.57;3.40;;;;;;;;;;5000842;28;20053;-69
2023/04/10 08:58:12;;;;;;;7.80;4.47;;;;;;;;;;5000229;28;20157;-69
2023/04/10 09:00:38;;;;;;;5.15;3.13;;;;;;;;;;5000217;28;20030;-69
2023/04/10 09:03:07;;;;;;;5.45;2.95;;;;;;;;;;5011463;28;20053;-70
2023/04/10 09:05:34;;;;;;;6.47;4.00;;;;;;;;;;5007573;28;20103;-70
2023/04/10 09:08:00;;;;;;;8.85;4.00;;;;;;;;;;5009219;28;20509;-70
2023/04/10 09:10:25;;;;;;;6.60;3.45;;;;;;;;;;5006770;28;20044;-69
2023/04/10 09:12:51;;;;;;;7.38;4.03;;;;;;;;;;5006011;28;20050;-70
2023/04/10 09:15:16;;;;;;;9.85;4.53;;;;;;;;;;5008585;28;20041;-70
2023/04/10 09:18:02;;;;;;;7.60;4.00;;;;;;;;;;5008703;28;20092;-70
2023/04/10 09:20:30;;;;;;;9.00;4.20;;;;;;;;;;5007266;28;20624;-69
2023/04/10 09:22:56;;;;;;;7.55;4.32;;;;;;;;;;5009003;28;20034;-70
2023/04/10 09:25:35;;;;;;;8.10;4.60;;;;;;;;;;5007337;28;20017;-69
2023/04/10 09:28:05;;;;;;;7.78;3.22;;;;;;;;;;5012395;28;20517;-69
2023/04/10 09:30:40;;;;;;;6.55;4.15;;;;;;;;;;5009746;28;20596;-70
2023/04/10 09:33:34;;;;;;;6.05;3.75;;;;;;;;;;5008487;28;20030;-69
2023/04/10 09:35:59;;;;;;;8.30;4.18;;;;;;;;;;4996703;28;20069;-69
2023/04/10 09:38:25;;;;;;;6.82;4.05;;;;;;;;;;5008368;28;20065;-68
2023/04/10 09:40:50;;;;;;;8.10;4.32;;;;;;;;;;5008485;28;20418;-69
2023/04/10 09:43:26;;;;;;;5.68;3.00;;;;;;;;;;5004454;28;20075;-69
2023/04/10 09:45:53;;;;;;;7.90;4.18;;;;;;;;;;5002472;28;20021;-69
2023/04/10 09:48:19;;;;;;;6.43;4.03;;;;;;;;;;5003304;28;20030;-69
2023/04/10 09:50:45;;;;;;;6.40;4.10;;;;;;;;;;5002941;28;20061;-69
2023/04/10 09:53:13;;;;;;;6.80;4.45;;;;;;;;;;5001337;28;20540;-69
2023/04/10 09:55:39;;;;;;;6.50;3.83;;;;;;;;;;4995722;28;20038;-69
2023/04/10 09:58:06;;;;;;;4.97;3.45;;;;;;;;;;5002148;28;20548;-68
2023/04/10 10:00:56;;;;;;;5.82;3.75;;;;;;;;;;5005327;28;20512;-69
2023/04/10 10:03:21;;;;;;;8.48;4.15;;;;;;;;;;4990576;28;20042;-68
2023/04/10 10:05:50;;;;;;;6.78;3.85;;;;;;;;;;5002080;28;20045;-69
2023/04/10 10:08:16;;;;;;;5.28;3.00;;;;;;;;;;4998183;28;20728;-68
2023/04/10 10:10:50;;;;;;;7.85;4.43;;;;;;;;;;4992689;28;20041;-69
2023/04/10 10:13:24;;;;;;;6.78;3.30;;;;;;;;;;5006713;28;20026;-69
2023/04/10 10:16:02;;;;;;;5.55;3.50;;;;;;;;;;4989839;28;20033;-69
2023/04/10 10:18:56;;;;;;;6.68;4.10;;;;;;;;;;4947203;28;20209;-69
2023/04/10 10:21:23;;;;;;;6.07;3.88;;;;;;;;;;4919670;28;20068;-69
2023/04/10 10:23:53;;;;;;;5.93;3.60;;;;;;;;;;4951042;28;20383;-69
2023/04/10 10:26:22;;;;;;;7.13;4.00;;;;;;;;;;4946921;28;20133;-68
2023/04/10 10:28:50;;;;;;;7.30;4.18;;;;;;;;;;4947696;28;21185;-69
2023/04/10 10:31:18;;;;;;;5.68;3.22;;;;;;;;;;4948457;28;20027;-69
2023/04/10 10:33:45;;;;;;;7.63;3.78;;;;;;;;;;4948983;28;20666;-68
2023/04/10 10:36:13;;;;;;;6.90;3.97;;;;;;;;;;4947421;28;20041;-69
2023/04/10 10:38:43;;;;;;;5.47;3.50;;;;;;;;;;4942495;28;20044;-69
2023/04/10 10:41:25;;;;;;;6.13;3.83;;;;;;;;;;4949111;28;20732;-69
2023/04/10 10:44:09;;;;;;;7.15;3.53;;;;;;;;;;4949739;28;20114;-69
2023/04/10 10:46:42;;;;;;;4.93;3.20;;;;;;;;;;5005500;28;20735;-69
2023/04/10 10:49:07;;;;;;;6.90;3.75;;;;;;;;;;5003699;28;20574;-69
2023/04/10 10:51:49;;;;;;;6.63;3.10;;;;;;;;;;4990985;28;20031;-69
2023/04/10 10:54:30;;;;;;;5.60;3.38;;;;;;;;;;4990441;28;20044;-69
2023/04/10 10:56:55;;;;;;;4.72;2.67;;;;;;;;;;4992821;28;20042;-69
2023/04/10 10:59:42;;;;;;;5.47;3.05;;;;;;;;;;5004446;28;20441;-69
2023/04/10 11:02:17;;;;;;;4.93;2.70;;;;;;;;;;5006259;28;20084;-69
2023/04/10 11:04:47;;;;;;;4.03;2.35;;;;;;;;;;4995535;28;20038;-69
2023/04/10 11:07:14;;;;;;;5.63;3.42;;;;;;;;;;5005450;28;20060;-69
2023/04/10 11:09:49;;;;;;;5.88;3.60;;;;;;;;;;5005936;28;20018;-69
2023/04/10 11:12:16;;;;;;;5.25;3.28;;;;;;;;;;5004506;28;20572;-69
2023/04/10 11:14:43;;;;;;;4.40;2.83;;;;;;;;;;5006176;28;20050;-69
2023/04/10 11:17:09;;;;;;;5.53;2.80;;;;;;;;;;5008609;28;20037;-69
2023/04/10 11:19:59;;;;;;;5.68;3.50;;;;;;;;;;5014777;28;20042;-69
2023/04/10 11:22:26;;;;;;;5.82;3.25;;;;;;;;;;5009188;28;20390;-69
2023/04/10 11:24:59;;;;;;;5.40;3.60;;;;;;;;;;5009256;28;20037;-69
2023/04/10 11:27:51;;;;;;;5.68;3.03;;;;;;;;;;5004120;28;20030;-69
2023/04/10 11:30:34;;;;;;;6.00;3.65;;;;;;;;;;5003710;28;20041;-69
2023/04/10 11:33:00;;;;;;;4.82;2.75;;;;;;;;;;5010341;28;20103;-70
2023/04/10 11:35:30;;;;;;;7.03;3.47;;;;;;;;;;5006882;28;20038;-69
2023/04/10 11:38:27;;;;;;;5.18;3.63;;;;;;;;;;5005756;28;20076;-69
2023/04/10 11:40:55;;;;;;;5.53;3.17;;;;;;;;;;4962182;28;20042;-69
2023/04/10 11:43:20;;;;;;;5.80;3.05;;;;;;;;;;5000157;28;20044;-69
2023/04/10 11:45:46;;;;;;;3.10;2.28;;;;;;;;;;5009327;28;20424;-69
2023/04/10 11:48:11;;;;;;;3.47;2.83;;;;;;;;;;5005281;28;20037;-69
2023/04/10 11:50:36;;;;;;;6.65;3.13;;;;;;;;;;5001824;28;20092;-69
2023/04/10 11:53:16;;;;;;;4.20;2.72;;;;;;;;;;5002805;28;20580;-69
2023/04/10 11:55:42;;;;;;;5.45;3.53;;;;;;;;;;5003079;28;20030;-69
2023/04/10 11:58:27;;;;;;;5.07;3.00;;;;;;;;;;5012539;28;20107;-69
2023/04/10 12:01:00;;;;;;;6.45;3.17;;;;;;;;;;4996070;28;20026;-69
2023/04/10 12:03:38;;;;;;;5.63;3.50;;;;;;;;;;5006921;28;20779;-69
2023/04/10 12:06:22;;;;;;;5.93;3.60;;;;;;;;;;5009467;28;20042;-69
2023/04/10 12:08:50;;;;;;;6.00;3.45;;;;;;;;;;5001562;28;20120;-69
2023/04/10 12:11:21;;;;;;;4.68;3.22;;;;;;;;;;4992747;28;20111;-69
2023/04/10 12:13:50;;;;;;;4.18;2.85;;;;;;;;;;5004076;28;20168;-69
2023/04/10 12:16:16;;;;;;;3.92;2.60;;;;;;;;;;5001466;28;20471;-69
2023/04/10 12:18:42;;;;;;;4.90;3.53;;;;;;;;;;5011889;28;20096;-70
2023/04/10 12:21:07;;;;;;;5.25;3.13;;;;;;;;;;5006204;28;20441;-69
2023/04/10 12:23:36;;;;;;;7.75;3.65;;;;;;;;;;5005838;28;20113;-70
2023/04/10 12:26:12;;;;;;;6.15;3.50;;;;;;;;;;5007698;28;20034;-69
2023/04/10 12:28:40;;;;;;;5.63;3.85;;;;;;;;;;5002409;28;20509;-69
2023/04/10 12:31:06;;;;;;;5.97;3.72;;;;;;;;;;5005886;28;20022;-69
2023/04/10 12:33:32;;;;;;;4.47;3.45;;;;;;;;;;5004464;28;20022;-71
2023/04/10 12:35:58;;;;;;;6.65;3.60;;;;;;;;;;5003308;28;20041;-69
2023/04/10 12:38:35;;;;;;;5.60;3.38;;;;;;;;;;5004284;28;20717;-69
2023/04/10 12:41:02;;;;;;;6.13;3.15;;;;;;;;;;5004829;28;20044;-69
2023/04/10 12:43:35;;;;;;;6.10;4.00;;;;;;;;;;5007459;28;20053;-69
2023/04/10 12:46:01;;;;;;;5.65;2.90;;;;;;;;;;5011103;28;20030;-69
2023/04/10 12:48:27;;;;;;;5.20;3.58;;;;;;;;;;5003389;28;20049;-69
2023/04/10 12:50:52;;;;;;;5.47;3.40;;;;;;;;;;5001692;28;20053;-69
2023/04/10 12:53:18;;;;;;;5.40;3.10;;;;;;;;;;5002041;28;20042;-69
2023/04/10 12:56:01;;;;;;;4.80;2.80;;;;;;;;;;5003691;28;20112;-69
2023/04/10 12:58:27;;;;;;;4.47;3.50;;;;;;;;;;5004134;28;20128;-69
2023/04/10 13:00:58;;;;;;;6.38;3.15;;;;;;;;;;5004667;28;20571;-69
2023/04/10 13:03:23;;;;;;;3.95;2.50;;;;;;;;;;4995368;28;20068;-69
2023/04/10 13:05:50;;;;;;;3.75;2.70;;;;;;;;;;5004010;28;20046;-68
2023/04/10 13:08:16;;;;;;;4.25;2.88;;;;;;;;;;4984721;28;20045;-69
2023/04/10 13:10:42;;;;;;;4.25;2.38;;;;;;;;;;4997524;28;20053;-68
2023/04/10 13:13:10;;;;;;;4.63;2.88;;;;;;;;;;4998160;28;20034;-68
2023/04/10 13:15:35;;;;;;;3.63;2.80;;;;;;;;;;5001934;28;20022;-68
2023/04/10 13:18:01;;;;;;;4.70;2.40;;;;;;;;;;5002189;28;20099;-69
2023/04/10 13:20:26;;;;;;;3.22;2.08;;;;;;;;;;5002617;28;20048;-68
2023/04/10 13:22:52;;;;;;;4.00;2.45;;;;;;;;;;5004216;28;20037;-68
2023/04/10 13:25:17;;;;;;;4.82;2.90;;;;;;;;;;5003080;28;20022;-68
2023/04/10 13:27:43;;;;;;;3.80;2.65;;;;;;;;;;5004824;28;20022;-68
2023/04/10 13:30:08;;;;;;;2.72;2.13;;;;;;;;;;5005583;28;20045;-68
2023/04/10 13:32:33;;;;;;;3.60;2.13;;;;;;;;;;5003487;28;20038;-67
2023/04/10 13:34:59;;;;;;;3.38;2.50;;;;;;;;;;5004473;28;20056;-68
2023/04/10 13:37:25;;;;;;;3.40;2.25;;;;;;;;;;5002690;28;20179;-69
2023/04/10 13:39:50;;;;;;;3.90;1.77;;;;;;;;;;5004177;28;20041;-69
2023/04/10 13:42:16;;;;;;;3.63;1.90;;;;;;;;;;5004945;28;20042;-68
2023/04/10 13:44:41;;;;;;;3.90;2.17;;;;;;;;;;5004563;28;20045;-68
2023/04/10 13:47:06;;;;;;;4.15;2.45;;;;;;;;;;5002961;28;20030;-69
2023/04/10 13:49:32;;;;;;;3.40;2.35;;;;;;;;;;5004927;28;20393;-69
2023/04/10 13:51:57;;;;;;;1.92;1.45;;;;;;;;;;5004728;28;20494;-69
2023/04/10 13:54:22;;;;;;;3.17;2.38;;;;;;;;;;5005254;28;20133;-69
2023/04/10 13:56:49;;;;;;;3.40;2.20;;;;;;;;;;5004185;28;20172;-69
2023/04/10 13:59:14;;;;;;;4.00;2.15;;;;;;;;;;5004653;28;20034;-69
2023/04/10 14:01:40;;;;;;;4.28;2.53;;;;;;;;;;5004905;28;20056;-69
2023/04/10 14:04:05;;;;;;;4.22;2.30;;;;;;;;;;5003842;28;20026;-68
2023/04/10 14:06:30;;;;;;;3.60;2.13;;;;;;;;;;5008399;28;20040;-68
2023/04/10 14:08:56;;;;;;;3.03;2.08;;;;;;;;;;5011408;28;20034;-69
2023/04/10 14:11:21;;;;;;;7.40;2.13;;;;;;;;;;5005691;28;20049;-69
2023/04/10 14:13:47;;;;;;;3.75;2.05;;;;;;;;;;5004909;28;20070;-68
2023/04/10 14:16:13;;;;;;;6.13;2.22;;;;;;;;;;5002775;28;20030;-68
2023/04/10 14:18:38;;;;;;;3.65;2.42;;;;;;;;;;5004699;28;20045;-68
2023/04/10 14:21:04;;;;;;;5.03;2.10;;;;;;;;;;5004210;28;20084;-68
2023/04/10 14:23:29;;;;;;;3.70;2.08;;;;;;;;;;5004217;28;20041;-68
2023/04/10 14:25:55;;;;;;;2.95;1.67;;;;;;;;;;5001216;28;20150;-68
2023/04/10 14:28:20;;;;;;;3.85;2.10;;;;;;;;;;5001525;28;20809;-68
2023/04/10 14:30:50;;;;;;;3.00;2.05;;;;;;;;;;5001153;28;20596;-68
2023/04/10 14:33:16;;;;;;;4.00;2.60;;;;;;;;;;4995087;28;20520;-68
2023/04/10 14:35:42;;;;;;;4.55;2.45;;;;;;;;;;5003660;28;20034;-68
2023/04/10 14:38:08;;;;;;;4.95;2.45;;;;;;;;;;4996833;28;20152;-68
2023/04/10 14:40:33;;;;;;;4.22;2.88;;;;;;;;;;4998353;28;20044;-68